Tuscaloosa Regional Airport
KTCL : now visible

Airfield :











YOU CAN JOIN US ON...

 
LOGIN :

Register | Disclaimer

   EN    FR    IT 

 









Legend :    VFR   Marginal VFR   IFR   Intensive IFR   Very Intensive IFR
Visi :
Ceiling :
>= 8 km
>= 3000ft
5 to 8 km
1000 to 3000 ft
1500m to 5 km
500 to 1000 ft
800 to 1500m
200 to 500 ft
< 800m
< 200 ft
Symbols :   Thunderstorms  Fog  Heavy snow  Heavy precipitations  Wind > 20 kt






- Airport Elevation : 170 ft
- IATA code : TCL


KTCL - Tuscaloosa Regional

CURRENT METAR :
  • 161253Z 21003KT 10SM CLR 23/22 A3003 RMK AO2 SLP167 T02330222

EXPIRED METARs :
  • 161153Z 00000KT 8SM CLR 23/22 A3002 RMK AO2 SLP163 70059 T02280222 10233 20222 51004
  • 161053Z AUTO 11003KT 10SM CLR 23/22 A3002 RMK AO2 SLP161 T02280217
  • 160953Z AUTO 04005KT 10SM SCT055 23/22 A3002 RMK AO2 SLP161 T02280217
  • 160853Z AUTO 06006KT 10SM FEW075 22/22 A3001 RMK AO2 LTG DSNT N SLP159 T02220217 55003
  • 160800Z AUTO 02003KT 10SM CLR 23/22 A3000 RMK AO2 LTG DSNT NW T02280217

TAF KTCL
Valid from the 16 at 12:00 until the 17 at 12:00 UTC


161129Z 1612/1712 VRB04KT P6SM SCT100
FM161700 26007KT P6SM VCSH SCT050 BKN100
PROB30 1621/1702 VRB10G22KT 2SM TSRA BR BKN045CB BKN100
FM170300 00000KT P6SM SCT110
KZTL FIR / North America



MET'MAP, your aeronautical weather chart ! - Copyright ORBIFLY December 2007 - Disclaimer

ORBIFLY MET'MAP TEAM :

Programming & Development : Alexandra Zaïnal
Original concept : Baudouin d'Aumeries
Technical & hardware support : Manuel Goepfert
Assistance : Marc-Olivier Méhu




SOURCES & CREDITS :

   NOAA       Earth
Advisory